Time;durP1;ratioP1;P1;durP2;ratioP2;P2;SDS_P1;SDS_P2;PMS_P1;PMS_P2;Temp;Humidity;BMP_temperature;BMP_pressure;BME280_temperature;BME280_humidity;BME280_pressure;Samples;Min_cycle;Max_cycle;Signal;HPM_P1;HPM_P2
2021/12/21 00:00:57;;;;;;;9.37;4.10;;;;;;;13.92;48.40;102678.63;5021997;28;20097;-66
2021/12/21 00:03:23;;;;;;;8.32;4.13;;;;;;;13.86;48.06;102676.00;5021885;28;20025;-66
2021/12/21 00:05:48;;;;;;;8.33;3.93;;;;;;;13.89;48.19;102684.75;5021360;28;20515;-65
2021/12/21 00:08:16;;;;;;;7.60;3.77;;;;;;;13.84;47.93;102670.81;5022612;28;20048;-66
2021/12/21 00:10:45;;;;;;;8.02;3.58;;;;;;;13.84;47.93;102667.34;5023253;28;20435;-67
2021/12/21 00:16:29;;;;;;;9.40;3.80;;;;;;;13.89;48.06;102678.63;5001659;28;20127;-67
2021/12/21 00:23:50;;;;;;;9.97;4.30;;;;;;;13.85;47.71;102663.81;5019811;28;20034;-65
2021/12/21 00:26:19;;;;;;;9.90;3.80;;;;;;;13.77;48.00;102653.41;5023510;28;20480;-66
2021/12/21 00:31:15;;;;;;;7.78;3.72;;;;;;;13.81;48.02;102651.66;5019474;28;20030;-67
2021/12/21 00:33:44;;;;;;;8.90;3.73;;;;;;;13.87;47.70;102662.09;5022483;28;20028;-66
2021/12/21 00:36:10;;;;;;;6.95;3.80;;;;;;;13.87;47.89;102657.75;5021009;28;20025;-66
2021/12/21 00:38:35;;;;;;;6.77;3.70;;;;;;;13.86;48.00;102647.31;5022209;28;20116;-67
2021/12/21 00:41:02;;;;;;;7.20;3.80;;;;;;;13.82;47.87;102640.38;5022158;28;20026;-67
2021/12/21 00:43:27;;;;;;;7.82;3.92;;;;;;;13.83;47.59;102642.09;5021787;28;20063;-66
2021/12/21 00:45:52;;;;;;;12.23;4.77;;;;;;;13.76;49.77;102646.44;5016125;28;20037;-67
2021/12/21 00:48:18;;;;;;;12.00;4.60;;;;;;;13.87;49.81;102656.88;5029040;28;20030;-68
2021/12/21 00:50:44;;;;;;;10.63;4.50;;;;;;;13.85;50.27;102653.38;5023326;28;20400;-69
2021/12/21 00:53:11;;;;;;;13.00;4.70;;;;;;;13.81;50.21;102646.44;5022793;28;20050;-69
2021/12/21 00:55:37;;;;;;;13.85;4.70;;;;;;;13.84;50.13;102656.91;5021390;28;20108;-67
2021/12/21 00:58:02;;;;;;;11.90;4.73;;;;;;;13.83;50.06;102652.53;5005466;28;20124;-69
2021/12/21 01:00:28;;;;;;;11.80;4.70;;;;;;;13.79;50.11;102638.59;5021048;28;20068;-68
2021/12/21 01:02:56;;;;;;;11.67;4.70;;;;;;;13.81;50.22;102651.66;5023531;28;20388;-68
2021/12/21 01:05:30;;;;;;;12.63;4.70;;;;;;;13.79;49.92;102648.19;5020505;28;20041;-68
2021/12/21 01:07:58;;;;;;;8.40;4.50;;;;;;;13.75;50.26;102645.56;5021491;28;20061;-68
2021/12/21 01:17:51;;;;;;;12.77;4.55;;;;;;;13.62;50.15;102632.53;5022124;28;20116;-68
2021/12/21 01:20:32;;;;;;;9.77;4.35;;;;;;;13.71;50.33;102656.88;5020957;28;20356;-68
2021/12/21 01:23:28;;;;;;;10.45;4.72;;;;;;;13.70;50.26;102656.88;5012423;28;20061;-68
2021/12/21 01:31:30;;;;;;;11.20;4.53;;;;;;;13.67;50.33;102651.66;5012662;28;20049;-68
2021/12/21 01:50:04;;;;;;;11.68;4.75;;;;;;;13.53;50.39;102634.25;5031023;28;20044;-69
2021/12/21 01:52:30;;;;;;;11.45;4.50;;;;;;;13.58;50.32;102644.69;5021222;28;20045;-67
2021/12/21 01:54:55;;;;;;;11.23;4.80;;;;;;;13.55;50.51;102629.91;4982676;28;20030;-69
2021/12/21 01:57:22;;;;;;;10.70;4.73;;;;;;;13.55;50.40;102635.13;5015258;28;20392;-69
2021/12/21 01:59:48;;;;;;;12.88;4.50;;;;;;;13.51;50.53;102622.09;5020848;28;20026;-68
2021/12/21 02:02:19;;;;;;;;;;;;;;;13.65;50.58;102640.34;5015443;28;20040;-69
2021/12/21 02:04:44;;;;;;;10.20;4.20;;;;;;;13.55;50.39;102629.03;5015789;28;20344;-69
2021/12/21 02:07:11;;;;;;;12.47;4.70;;;;;;;13.53;50.51;102631.66;5016083;28;20029;-68
2021/12/21 02:09:37;;;;;;;12.13;4.82;;;;;;;13.49;50.38;102616.84;5014971;28;20038;-69
2021/12/21 02:12:08;;;;;;;12.18;4.60;;;;;;;13.52;50.26;102614.25;5014916;28;20396;-67
2021/12/21 02:14:35;;;;;;;11.85;4.82;;;;;;;13.51;50.33;102615.13;5015807;28;20575;-68
2021/12/21 02:19:41;;;;;;;12.63;4.60;;;;;;;13.50;50.43;102612.53;5015924;28;20140;-69
2021/12/21 02:22:11;;;;;;;12.32;4.63;;;;;;;13.46;50.33;102605.56;5014477;28;20125;-68
2021/12/21 02:24:49;;;;;;;12.32;4.95;;;;;;;13.47;50.35;102605.56;5015976;28;20044;-68
2021/12/21 02:27:26;;;;;;;12.10;4.93;;;;;;;13.49;50.41;102608.19;5015593;28;20033;-69
2021/12/21 02:29:53;;;;;;;10.52;4.63;;;;;;;13.48;50.37;102611.66;4999421;28;20049;-68
2021/12/21 02:32:19;;;;;;;11.25;4.68;;;;;;;13.48;50.42;102616.88;5014275;28;20116;-68
2021/12/21 02:34:45;;;;;;;10.73;4.93;;;;;;;13.48;50.52;102620.34;5014649;28;20111;-68
2021/12/21 02:37:11;;;;;;;14.00;4.93;;;;;;;13.45;50.22;102625.56;5015811;28;20465;-68
2021/12/21 02:39:37;;;;;;;10.38;4.72;;;;;;;13.47;50.25;102621.19;4997704;28;20444;-68
2021/12/21 02:42:04;;;;;;;11.85;4.70;;;;;;;13.47;50.32;102620.34;5015546;28;20034;-67
2021/12/21 02:44:30;;;;;;;;;;;;;;;13.55;50.51;102621.22;4997828;28;20421;-68
2021/12/21 02:46:55;;;;;;;11.80;4.43;;;;;;;13.48;50.12;102611.66;5029750;28;19914;-68
2021/12/21 02:49:20;;;;;;;10.27;4.63;;;;;;;13.44;50.44;102611.63;5014101;28;20396;-68
2021/12/21 02:51:47;;;;;;;12.57;4.97;;;;;;;13.43;50.43;102615.13;5013979;28;20099;-68
2021/12/21 02:54:14;;;;;;;12.27;4.82;;;;;;;13.42;50.08;102608.16;4997713;28;20124;-67
2021/12/21 02:56:40;;;;;;;10.30;4.30;;;;;;;13.39;50.47;102594.22;5014949;28;20388;-67
2021/12/21 02:59:06;;;;;;;12.77;4.70;;;;;;;13.42;49.99;102600.31;5014956;28;20046;-67
2021/12/21 03:01:31;;;;;;;12.20;4.90;;;;;;;13.41;50.27;102609.03;4981322;28;20145;-68
2021/12/21 03:03:57;;;;;;;11.63;4.77;;;;;;;13.29;50.09;102582.88;5015249;28;20037;-68
2021/12/21 03:09:32;;;;;;;12.65;4.80;;;;;;;13.39;50.07;102596.81;5013916;28;20546;-68
2021/12/21 03:11:57;;;;;;;10.90;4.55;;;;;;;13.36;50.16;102592.47;5013555;28;20054;-67
2021/12/21 03:14:27;;;;;;;12.73;4.70;;;;;;;13.37;50.16;102596.84;5014728;28;20038;-68
2021/12/21 03:16:53;;;;;;;11.73;4.78;;;;;;;13.37;50.24;102586.41;5013552;28;20029;-68
2021/12/21 03:19:19;;;;;;;11.43;4.63;;;;;;;13.38;49.92;102597.69;5015055;28;20487;-68
2021/12/21 03:21:45;;;;;;;12.60;5.13;;;;;;;13.37;50.01;102596.84;5014456;28;20065;-68
2021/12/21 03:24:10;;;;;;;11.20;4.70;;;;;;;13.37;50.34;102589.00;5013389;28;20065;-68
2021/12/21 03:26:37;;;;;;;13.23;4.90;;;;;;;13.37;50.13;102593.34;5013854;28;20037;-67
2021/12/21 03:29:04;;;;;;;12.35;4.65;;;;;;;13.31;50.21;102583.78;5013245;28;20057;-68
2021/12/21 03:31:30;;;;;;;11.38;4.50;;;;;;;13.25;50.22;102582.03;5013304;28;20060;-68
2021/12/21 03:33:56;;;;;;;11.05;4.60;;;;;;;13.31;50.15;102586.38;5013172;28;20492;-68
2021/12/21 03:36:21;;;;;;;12.50;4.60;;;;;;;13.32;50.16;102590.72;5012981;28;20030;-68
2021/12/21 03:39:04;;;;;;;12.10;4.43;;;;;;;13.32;49.96;102585.50;5013122;28;20477;-69
2021/12/21 03:41:30;;;;;;;11.80;4.50;;;;;;;13.32;50.19;102595.09;5014470;28;20026;-68
2021/12/21 03:43:59;;;;;;;14.02;4.97;;;;;;;13.30;50.15;102582.03;5013298;28;20108;-68
2021/12/21 03:46:25;;;;;;;12.50;4.80;;;;;;;13.31;50.25;102588.13;5014371;28;20431;-68
2021/12/21 03:48:50;;;;;;;12.77;5.00;;;;;;;13.31;50.27;102588.97;5013979;28;20030;-68
2021/12/21 03:51:18;;;;;;;12.83;5.00;;;;;;;13.32;49.95;102582.06;5012650;28;20026;-67
2021/12/21 03:53:44;;;;;;;11.35;4.63;;;;;;;13.29;50.11;102581.16;5014040;28;20034;-67
2021/12/21 03:58:42;;;;;;;14.02;4.88;;;;;;;13.27;50.27;102588.13;5019168;28;20439;-67
2021/12/21 04:01:08;;;;;;;12.57;4.80;;;;;;;13.19;50.07;102575.94;5012492;28;20091;-66
2021/12/21 04:03:34;;;;;;;13.82;5.00;;;;;;;13.22;50.50;102575.94;5012703;28;20059;-67
2021/12/21 04:05:59;;;;;;;14.17;5.10;;;;;;;13.20;50.68;102578.56;4996217;28;20122;-67
2021/12/21 04:08:24;;;;;;;11.30;4.70;;;;;;;13.21;50.82;102580.31;4996245;28;20040;-67
2021/12/21 04:10:50;;;;;;;12.87;5.20;;;;;;;13.22;50.50;102569.00;5012641;28;20077;-66
2021/12/21 04:13:15;;;;;;;12.97;4.87;;;;;;;13.26;50.51;102575.09;5010649;28;20085;-67
2021/12/21 04:15:44;;;;;;;12.43;4.83;;;;;;;13.25;50.35;102574.19;5011994;28;20030;-66
2021/12/21 04:18:13;;;;;;;13.10;4.95;;;;;;;13.24;50.52;102579.44;5011537;28;20030;-67
2021/12/21 04:20:40;;;;;;;11.85;5.18;;;;;;;13.22;50.39;102573.34;5011243;28;20040;-67
2021/12/21 04:23:06;;;;;;;14.45;5.07;;;;;;;13.22;50.21;102578.56;4993915;28;20069;-67
2021/12/21 04:25:32;;;;;;;;;;;;;;;13.32;50.30;102575.09;4994377;28;20121;-66
2021/12/21 04:27:57;;;;;;;12.93;4.97;;;;;;;13.21;50.31;102574.19;5013248;28;20013;-68
2021/12/21 04:30:23;;;;;;;13.20;5.20;;;;;;;13.21;50.36;102577.69;5013442;28;20431;-67
2021/12/21 04:32:48;;;;;;;13.97;5.10;;;;;;;13.22;50.42;102583.75;5012253;28;20035;-68
2021/12/21 04:35:19;;;;;;;12.63;4.97;;;;;;;13.21;50.08;102582.03;5012489;28;20420;-67
2021/12/21 04:37:48;;;;;;;13.55;5.20;;;;;;;13.15;50.14;102577.66;5012250;28;20425;-67
2021/12/21 04:40:17;;;;;;;12.25;5.07;;;;;;;13.20;50.18;102580.28;5012089;28;20499;-67
2021/12/21 04:42:43;;;;;;;15.45;5.13;;;;;;;13.19;50.21;102575.94;5013522;28;20104;-68
2021/12/21 04:45:08;;;;;;;11.73;5.03;;;;;;;13.17;50.20;102575.94;5013309;28;20120;-67
2021/12/21 04:47:34;;;;;;;12.97;4.80;;;;;;;13.17;50.14;102567.25;4979632;28;20473;-66
2021/12/21 04:49:59;;;;;;;13.93;5.30;;;;;;;13.12;49.90;102570.72;5011899;28;20037;-66
2021/12/21 04:52:24;;;;;;;11.53;5.13;;;;;;;13.14;49.98;102565.50;5012012;28;20074;-67
2021/12/21 04:54:50;;;;;;;13.17;5.00;;;;;;;13.15;50.06;102566.38;5013295;28;20034;-66
2021/12/21 04:57:15;;;;;;;13.23;4.93;;;;;;;13.15;50.05;102563.78;5011912;28;20026;-67
2021/12/21 04:59:40;;;;;;;11.87;5.20;;;;;;;13.15;50.15;102566.38;5012991;28;20121;-68
2021/12/21 05:02:06;;;;;;;11.47;4.90;;;;;;;13.08;50.02;102558.53;4995511;28;20033;-67
2021/12/21 05:04:31;;;;;;;11.07;4.43;;;;;;;13.10;49.80;102569.84;4995571;28;20034;-66
2021/12/21 05:06:57;;;;;;;12.30;4.93;;;;;;;13.12;50.00;102569.84;4995469;28;20396;-67
2021/12/21 05:09:26;;;;;;;11.47;4.90;;;;;;;13.12;49.87;102564.63;5015345;28;20056;-68
2021/12/21 05:12:00;;;;;;;13.02;5.13;;;;;;;13.08;49.99;102566.34;5015773;28;20704;-67
2021/12/21 05:14:25;;;;;;;13.27;5.22;;;;;;;13.10;49.94;102568.97;5017111;28;20116;-67
2021/12/21 05:16:51;;;;;;;13.03;5.23;;;;;;;13.08;49.79;102570.72;5015894;28;20125;-66
2021/12/21 05:19:16;;;;;;;14.20;4.93;;;;;;;13.08;49.88;102568.97;4999367;28;20038;-68
2021/12/21 05:21:41;;;;;;;14.87;5.57;;;;;;;13.01;49.85;102555.91;5017024;28;20415;-67
2021/12/21 05:24:07;;;;;;;13.73;5.00;;;;;;;13.04;49.89;102566.34;5016855;28;20105;-67
2021/12/21 05:26:32;;;;;;;14.23;5.40;;;;;;;13.07;49.87;102574.19;5015613;28;20034;-67
2021/12/21 05:28:58;;;;;;;14.07;5.23;;;;;;;13.06;49.78;102578.50;5015315;28;20080;-67
2021/12/21 05:31:23;;;;;;;11.80;5.10;;;;;;;13.02;49.93;102571.56;4999331;28;20120;-65
2021/12/21 05:33:51;;;;;;;12.37;4.83;;;;;;;13.04;49.87;102568.97;5016964;28;20037;-66
2021/12/21 05:36:17;;;;;;;14.23;5.03;;;;;;;13.03;49.83;102575.03;4999565;28;20105;-67
2021/12/21 05:38:48;;;;;;;13.27;4.93;;;;;;;13.03;49.76;102575.03;5024362;28;20040;-67
2021/12/21 05:41:22;;;;;;;12.77;5.32;;;;;;;13.02;49.82;102573.28;5036454;28;20033;-67
2021/12/21 05:43:47;;;;;;;13.88;5.32;;;;;;;13.02;49.68;102570.69;5019106;28;20128;-67
2021/12/21 05:46:13;;;;;;;15.03;5.73;;;;;;;12.99;49.60;102566.34;5031329;28;20116;-67
2021/12/21 05:48:38;;;;;;;13.23;5.43;;;;;;;13.02;49.67;102574.19;5030663;28;20534;-67
2021/12/21 05:51:03;;;;;;;13.77;5.10;;;;;;;13.00;50.01;102575.03;5015118;28;20030;-67
2021/12/21 05:53:29;;;;;;;14.10;5.20;;;;;;;12.95;49.89;102564.59;5016560;28;20465;-67
2021/12/21 05:55:54;;;;;;;12.83;5.07;;;;;;;12.99;50.02;102571.56;5016145;28;20108;-67
2021/12/21 05:58:20;;;;;;;12.43;4.80;;;;;;;13.00;49.71;102580.25;5014838;28;20034;-67
2021/12/21 06:00:45;;;;;;;14.13;5.47;;;;;;;12.98;49.68;102575.03;5001067;28;20132;-66
2021/12/21 06:03:10;;;;;;;13.53;5.20;;;;;;;12.98;49.87;102575.91;5014734;28;20121;-67
2021/12/21 06:05:36;;;;;;;13.10;5.07;;;;;;;12.96;49.89;102569.81;5020303;28;20034;-67
2021/12/21 06:08:03;;;;;;;11.80;5.00;;;;;;;12.95;49.68;102568.06;5031075;28;20051;-67
2021/12/21 06:10:36;;;;;;;13.07;5.20;;;;;;;12.91;49.79;102562.84;5034595;28;20040;-67
2021/12/21 06:26:11;;;;;;;12.67;5.23;;;;;;;12.91;49.78;102581.09;5014725;28;20046;-67
2021/12/21 06:28:37;;;;;;;12.93;5.10;;;;;;;12.86;49.69;102568.06;5015545;28;20383;-67
2021/12/21 06:31:03;;;;;;;13.80;5.50;;;;;;;12.88;49.38;102571.53;5014869;28;20035;-67
2021/12/21 06:33:29;;;;;;;15.07;5.32;;;;;;;12.81;49.70;102562.84;5015697;28;20037;-67
2021/12/21 06:35:55;;;;;;;12.73;5.43;;;;;;;12.85;49.59;102557.59;5015192;28;20030;-66
2021/12/21 06:38:21;;;;;;;13.63;5.43;;;;;;;12.88;49.71;102566.34;4997858;28;20045;-67
2021/12/21 06:40:47;;;;;;;13.20;5.22;;;;;;;12.88;49.48;102568.06;5014250;28;20037;-67
2021/12/21 06:43:15;;;;;;;14.20;6.18;;;;;;;12.86;49.53;102564.56;5014186;28;20034;-67
2021/12/21 06:45:47;;;;;;;14.98;5.10;;;;;;;12.86;49.36;102565.44;5014452;28;20087;-67
2021/12/21 06:51:20;;;;;;;15.57;5.57;;;;;;;12.86;49.43;102575.88;5014045;28;20133;-66
2021/12/21 06:53:51;;;;;;;13.90;5.55;;;;;;;12.85;49.91;102573.25;5012383;28;20128;-67
2021/12/21 06:56:18;;;;;;;13.60;5.32;;;;;;;12.84;49.79;102572.38;5013207;28;20026;-67
2021/12/21 06:58:44;;;;;;;14.27;5.70;;;;;;;12.82;49.59;102571.50;5013534;28;20033;-67
2021/12/21 07:01:10;;;;;;;14.18;5.20;;;;;;;12.82;49.77;102580.22;5014563;28;20038;-66
2021/12/21 07:03:36;;;;;;;13.37;5.30;;;;;;;12.80;49.66;102562.81;5014749;28;20479;-67
2021/12/21 07:06:03;;;;;;;14.50;5.47;;;;;;;12.82;49.71;102572.41;5013800;28;20083;-67
2021/12/21 07:08:31;;;;;;;12.65;5.60;;;;;;;12.80;49.39;102573.22;4997622;28;20033;-67
2021/12/21 07:11:23;;;;;;;11.13;5.22;;;;;;;12.76;49.52;102564.53;5013554;28;20508;-67
2021/12/21 07:19:16;;;;;;;15.32;5.20;;;;;;;12.77;49.54;102579.31;5015012;28;20447;-67
2021/12/21 07:21:42;;;;;;;15.30;5.70;;;;;;;12.79;49.33;102588.00;4997250;28;20034;-67
2021/12/21 07:24:08;;;;;;;14.20;5.73;;;;;;;12.73;49.46;102577.56;5014655;28;20037;-66
2021/12/21 07:26:34;;;;;;;13.38;5.30;;;;;;;12.78;49.44;102593.19;5014326;28;20507;-65
2021/12/21 07:28:59;;;;;;;13.33;5.03;;;;;;;12.76;49.17;102592.34;5029521;28;20081;-67
2021/12/21 07:31:25;;;;;;;13.27;5.73;;;;;;;12.75;49.31;102588.00;5013792;28;20064;-67
2021/12/21 07:33:50;;;;;;;13.67;5.30;;;;;;;12.73;48.97;102587.97;4997120;28;20392;-67
2021/12/21 07:36:16;;;;;;;13.23;5.30;;;;;;;12.72;49.11;102581.03;5014390;28;20033;-67
2021/12/21 07:38:41;;;;;;;11.90;4.93;;;;;;;12.75;49.08;102586.25;5013477;28;20034;-66
2021/12/21 07:41:07;;;;;;;14.33;5.47;;;;;;;12.75;48.88;102586.25;5018209;28;20124;-66
2021/12/21 07:43:32;;;;;;;16.70;5.83;;;;;;;12.69;48.79;102593.16;5005687;28;20037;-67
2021/12/21 07:45:58;;;;;;;14.07;5.50;;;;;;;12.71;48.76;102584.50;5024252;28;20033;-67
2021/12/21 07:48:23;;;;;;;12.63;5.10;;;;;;;12.76;48.64;102598.41;5016588;28;20037;-67
2021/12/21 07:50:50;;;;;;;13.47;5.47;;;;;;;12.74;49.09;102588.84;5024658;28;20026;-66
2021/12/21 07:53:17;;;;;;;15.30;5.60;;;;;;;12.73;48.95;102592.31;5018774;28;20026;-66
2021/12/21 07:55:43;;;;;;;17.15;6.00;;;;;;;12.73;46.63;102602.75;5014001;28;20038;-66
2021/12/21 07:58:10;;;;;;;16.23;6.32;;;;;;;12.77;49.00;102604.50;4987110;28;20084;-65
2021/12/21 08:00:36;;;;;;;;;;;;;;;12.87;49.12;102603.69;5021990;28;20456;-65
2021/12/21 08:03:01;;;;;;;14.23;5.43;;;;;;;12.80;48.98;102594.06;5040613;28;20002;-65
2021/12/21 08:05:31;;;;;;;13.07;5.60;;;;;;;12.80;49.05;102601.91;5020377;28;20033;-66
2021/12/21 08:08:07;;;;;;;12.68;5.25;;;;;;;12.79;48.98;102603.66;4997426;28;20377;-66
2021/12/21 08:10:43;;;;;;;14.73;5.70;;;;;;;12.76;48.90;102594.94;5012700;28;20042;-64
2021/12/21 08:13:09;;;;;;;15.48;5.75;;;;;;;12.77;48.97;102599.31;5023662;28;20041;-65
2021/12/21 08:15:34;;;;;;;14.63;5.20;;;;;;;12.79;48.44;102597.53;4998212;28;20352;-66
2021/12/21 08:18:00;;;;;;;13.10;5.10;;;;;;;12.75;48.49;102594.06;5015380;28;20556;-65
2021/12/21 08:20:27;;;;;;;14.67;5.43;;;;;;;12.80;48.28;102604.50;4990316;28;20037;-66
2021/12/21 08:22:53;;;;;;;13.55;5.55;;;;;;;12.76;48.74;102606.22;5007462;28;20095;-66
2021/12/21 08:25:24;;;;;;;15.48;5.65;;;;;;;12.78;48.92;102599.28;5014281;28;20029;-64
2021/12/21 08:27:50;;;;;;;12.98;5.40;;;;;;;12.76;48.20;102603.63;5027066;28;20464;-65
2021/12/21 08:30:16;;;;;;;11.65;5.45;;;;;;;12.74;46.25;102605.34;5026379;28;20508;-65
2021/12/21 08:32:41;;;;;;;11.13;5.23;;;;;;;12.75;45.73;102609.69;5026794;28;20043;-65
2021/12/21 08:35:07;;;;;;;12.83;5.33;;;;;;;12.75;46.53;102607.09;5026351;28;20531;-66
2021/12/21 08:37:34;;;;;;;11.73;5.20;;;;;;;12.74;45.52;102601.88;5042107;28;20546;-65
2021/12/21 08:40:00;;;;;;;12.75;5.68;;;;;;;12.73;45.76;102607.97;5026891;28;20172;-64
2021/12/21 08:42:26;;;;;;;11.77;5.30;;;;;;;12.73;45.17;102608.81;5009854;28;20120;-67
2021/12/21 08:44:52;;;;;;;13.75;5.55;;;;;;;12.72;45.38;102619.25;5015208;28;20104;-66
2021/12/21 08:47:17;;;;;;;13.53;5.73;;;;;;;12.73;45.26;102616.63;5000594;28;20072;-64
2021/12/21 08:49:42;;;;;;;12.37;5.40;;;;;;;12.74;45.58;102612.31;5018488;28;20084;-65
2021/12/21 08:52:08;;;;;;;13.67;5.23;;;;;;;12.72;45.81;102620.09;4997852;28;20057;-66
2021/12/21 08:54:34;;;;;;;12.53;5.43;;;;;;;12.67;46.40;102609.66;5000352;28;20388;-66
2021/12/21 08:56:59;;;;;;;11.73;5.47;;;;;;;12.73;44.58;102616.63;5015432;28;20038;-66
2021/12/21 08:59:24;;;;;;;13.03;5.10;;;;;;;12.74;45.10;102620.97;4972902;28;20056;-64
2021/12/21 09:01:51;;;;;;;12.80;5.20;;;;;;;12.73;44.63;102626.19;5025384;28;20547;-68
2021/12/21 09:04:19;;;;;;;11.80;5.40;;;;;;;12.72;44.35;102629.66;5020843;28;20048;-67
2021/12/21 09:06:45;;;;;;;11.95;5.30;;;;;;;12.72;44.16;102622.69;5010889;28;20037;-65
2021/12/21 09:09:11;;;;;;;14.67;5.60;;;;;;;12.69;44.18;102624.44;5021199;28;20613;-67
2021/12/21 09:11:38;;;;;;;13.90;5.70;;;;;;;12.72;44.66;102625.31;5015698;28;20030;-66
2021/12/21 09:14:04;;;;;;;12.40;5.15;;;;;;;12.68;43.87;102623.56;5021228;28;20051;-65
2021/12/21 09:16:29;;;;;;;14.87;5.67;;;;;;;12.73;44.14;102623.59;5015794;28;20314;-66
2021/12/21 09:18:54;;;;;;;11.27;5.00;;;;;;;12.70;44.34;102616.63;5015955;28;20450;-64
2021/12/21 09:21:20;;;;;;;11.47;4.83;;;;;;;12.73;44.66;102632.25;5009213;28;20112;-66
2021/12/21 09:23:45;;;;;;;11.77;5.20;;;;;;;12.75;44.20;102625.31;5005459;28;20049;-66
2021/12/21 09:26:10;;;;;;;10.63;4.93;;;;;;;12.75;44.04;102622.72;4993331;28;20053;-66
2021/12/21 09:28:36;;;;;;;13.50;5.30;;;;;;;12.77;43.97;102627.97;4991281;28;20060;-65
2021/12/21 09:31:01;;;;;;;13.30;5.70;;;;;;;12.64;44.14;102607.06;4972734;28;20037;-65
2021/12/21 09:33:27;;;;;;;11.90;4.93;;;;;;;12.73;44.78;102614.03;5012130;28;20037;-64
2021/12/21 09:35:52;;;;;;;12.70;5.33;;;;;;;12.76;44.27;102615.78;4982109;28;20030;-67
2021/12/21 09:38:19;;;;;;;12.80;5.13;;;;;;;12.75;44.29;102614.06;4995128;28;20069;-66
2021/12/21 09:40:44;;;;;;;13.43;5.53;;;;;;;12.75;44.24;102614.91;5006176;28;20038;-66
2021/12/21 09:43:11;;;;;;;10.47;4.83;;;;;;;12.75;44.09;102611.44;5004982;28;20049;-66
2021/12/21 09:45:37;;;;;;;10.70;5.30;;;;;;;12.73;44.18;102611.41;5004474;28;20026;-66
2021/12/21 09:48:03;;;;;;;11.32;4.85;;;;;;;12.68;44.82;102600.13;4989560;28;20045;-66
2021/12/21 09:50:29;;;;;;;11.93;5.40;;;;;;;12.74;44.35;102604.50;5005071;28;20082;-67
2021/12/21 09:52:55;;;;;;;12.43;5.37;;;;;;;12.77;45.01;102601.91;5003986;28;20060;-63
2021/12/21 09:55:22;;;;;;;10.50;4.90;;;;;;;12.75;46.02;102604.47;4991266;28;20096;-66
2021/12/21 09:57:48;;;;;;;;;;;;;;;12.87;45.45;102600.19;4992084;28;20049;-66
2021/12/21 10:00:23;;;;;;;13.55;5.22;;;;;;;12.77;45.30;102599.31;5008950;28;19921;-64
2021/12/21 10:02:48;;;;;;;9.27;4.72;;;;;;;12.79;45.12;102601.03;4999870;28;20080;-64
2021/12/21 10:05:18;;;;;;;11.40;5.10;;;;;;;12.78;44.45;102601.00;5016416;28;20548;-66
2021/12/21 10:07:55;;;;;;;11.40;4.95;;;;;;;12.78;45.59;102596.69;5028822;28;20037;-66
2021/12/21 10:10:21;;;;;;;11.07;5.03;;;;;;;12.78;45.73;102601.00;5009624;28;20052;-67
2021/12/21 10:12:47;;;;;;;13.27;5.53;;;;;;;12.77;44.34;102604.50;4992439;28;20030;-64
2021/12/21 10:15:17;;;;;;;13.33;5.40;;;;;;;12.75;44.96;102603.63;5008810;28;20491;-66
2021/12/21 10:17:54;;;;;;;10.85;5.10;;;;;;;12.81;45.24;102606.25;5008355;28;20040;-66
2021/12/21 10:20:39;;;;;;;12.90;5.22;;;;;;;12.82;45.97;102603.66;5009365;28;20030;-66
2021/12/21 10:23:10;;;;;;;12.27;5.20;;;;;;;12.77;45.66;102604.50;5008967;28;20083;-66
2021/12/21 10:25:48;;;;;;;11.25;5.05;;;;;;;12.80;46.72;102596.69;5009363;28;20423;-66
2021/12/21 10:28:38;;;;;;;11.27;4.75;;;;;;;12.83;45.88;102584.53;5011211;28;20045;-66
2021/12/21 10:31:39;;;;;;;12.02;4.90;;;;;;;12.81;46.41;102582.78;5024956;28;20033;-64
2021/12/21 10:34:10;;;;;;;9.13;4.70;;;;;;;12.81;46.08;102578.47;5017687;28;20037;-68
2021/12/21 10:37:03;;;;;;;11.65;4.95;;;;;;;12.86;46.30;102586.31;5014293;28;20429;-66
2021/12/21 10:39:31;;;;;;;10.05;4.70;;;;;;;12.83;45.96;102584.53;5023696;28;20045;-64
2021/12/21 10:41:59;;;;;;;11.27;5.07;;;;;;;12.80;45.85;102575.84;5015866;28;20833;-66
2021/12/21 10:44:25;;;;;;;10.13;5.00;;;;;;;12.78;45.30;102568.03;5007909;28;20399;-66
2021/12/21 10:46:53;;;;;;;13.17;5.20;;;;;;;12.82;45.90;102580.22;5009234;28;20125;-63
2021/12/21 10:49:27;;;;;;;10.82;5.10;;;;;;;12.77;45.11;102574.09;5009824;28;20030;-66
2021/12/21 10:52:15;;;;;;;10.60;4.90;;;;;;;12.83;46.17;102581.06;5009661;28;20676;-67
2021/12/21 10:54:43;;;;;;;12.55;4.95;;;;;;;12.83;45.66;102581.06;5009512;28;20022;-64
2021/12/21 10:57:31;;;;;;;11.55;5.03;;;;;;;12.88;46.69;102581.09;5008631;28;20499;-66
2021/12/21 11:00:00;;;;;;;10.02;4.88;;;;;;;12.80;46.72;102576.72;4985136;28;20092;-64
2021/12/21 11:02:32;;;;;;;10.40;4.70;;;;;;;12.83;46.58;102586.28;5009044;28;20038;-67
2021/12/21 11:05:07;;;;;;;12.02;5.10;;;;;;;12.83;46.81;102581.94;5016085;28;20033;-67
2021/12/21 11:10:14;;;;;;;11.15;4.78;;;;;;;12.82;46.33;102574.13;5009270;28;20503;-67
2021/12/21 11:12:51;;;;;;;9.98;4.70;;;;;;;12.79;46.88;102559.34;5017725;28;20037;-64
2021/12/21 11:15:22;;;;;;;11.02;4.90;;;;;;;12.77;46.93;102561.06;5025649;28;20448;-69
2021/12/21 11:17:48;;;;;;;11.02;5.03;;;;;;;12.82;45.69;102571.50;5018547;28;20022;-66
2021/12/21 11:20:15;;;;;;;11.18;4.72;;;;;;;12.81;45.58;102567.16;5013442;28;20472;-69
2021/12/21 11:22:43;;;;;;;10.63;4.57;;;;;;;12.82;46.72;102564.59;5013484;28;20034;-67
2021/12/21 11:25:10;;;;;;;11.95;4.97;;;;;;;12.81;46.53;102560.22;5012868;28;20034;-68
2021/12/21 11:27:36;;;;;;;;;;;;;;;12.94;46.77;102558.53;4997486;28;20029;-69
2021/12/21 11:30:04;;;;;;;;;;;;;;;12.97;46.91;102549.81;5013882;28;19913;-68
2021/12/21 11:32:33;;;;;;;10.70;4.75;;;;;;;12.85;46.10;102537.66;5013617;28;19913;-69
2021/12/21 11:37:37;;;;;;;9.25;4.20;;;;;;;12.83;46.59;102519.38;5014750;28;20045;-69
2021/12/21 11:40:04;;;;;;;11.15;4.85;;;;;;;12.84;46.56;102515.06;4997258;28;20029;-69
2021/12/21 11:42:39;;;;;;;9.70;4.35;;;;;;;12.74;47.50;102505.50;4996592;28;20128;-69
2021/12/21 11:45:14;;;;;;;9.90;4.60;;;;;;;12.83;47.38;102516.78;5014143;28;20029;-70
2021/12/21 11:47:52;;;;;;;9.82;4.65;;;;;;;12.76;47.51;102506.38;5013725;28;20045;-69
2021/12/21 11:50:18;;;;;;;11.25;4.93;;;;;;;12.81;47.44;102531.56;5013358;28;20389;-69
2021/12/21 11:52:43;;;;;;;8.75;4.40;;;;;;;12.83;47.65;102529.81;5014554;28;20048;-68
2021/12/21 11:55:09;;;;;;;12.80;4.80;;;;;;;12.83;47.83;102528.97;5013361;28;20038;-70
2021/12/21 11:57:41;;;;;;;10.50;4.57;;;;;;;12.79;47.95;102519.38;4981164;28;20068;-70
2021/12/21 12:00:15;;;;;;;11.90;4.82;;;;;;;12.83;48.36;102519.38;5014526;28;20041;-70
2021/12/21 12:02:42;;;;;;;11.50;4.93;;;;;;;12.83;48.17;102519.38;5014326;28;20113;-70
2021/12/21 12:05:18;;;;;;;11.23;4.80;;;;;;;12.84;48.13;102522.88;5012977;28;20034;-70
2021/12/21 12:07:43;;;;;;;10.82;4.53;;;;;;;12.83;47.87;102522.00;5013145;28;20061;-70
2021/12/21 12:10:14;;;;;;;8.40;4.53;;;;;;;12.82;48.20;102522.88;5014139;28;20125;-70
2021/12/21 12:12:41;;;;;;;9.40;4.63;;;;;;;12.84;48.63;102512.47;5013224;28;20026;-71
2021/12/21 12:15:09;;;;;;;11.15;4.60;;;;;;;12.85;48.05;102502.91;5013818;28;20034;-70
2021/12/21 12:17:49;;;;;;;9.35;4.40;;;;;;;12.86;48.16;102500.31;5012805;28;20038;-70
2021/12/21 12:20:16;;;;;;;10.52;4.60;;;;;;;12.86;48.54;102507.25;4996625;28;20475;-70
2021/12/21 12:22:44;;;;;;;9.70;4.40;;;;;;;12.80;48.12;102492.47;4980549;28;20040;-71
2021/12/21 12:25:21;;;;;;;9.60;4.60;;;;;;;12.82;48.28;102504.66;5014240;28;20048;-70
2021/12/21 12:27:49;;;;;;;9.50;4.68;;;;;;;12.82;48.15;102504.66;5012469;28;20385;-70
2021/12/21 12:30:21;;;;;;;8.27;4.35;;;;;;;12.77;48.16;102492.47;5013858;28;20065;-71
2021/12/21 12:33:01;;;;;;;12.07;4.75;;;;;;;12.86;48.33;102496.81;5014028;28;20038;-71
2021/12/21 12:35:34;;;;;;;10.52;4.43;;;;;;;12.81;48.38;102505.50;5014044;28;20026;-71
2021/12/21 12:38:21;;;;;;;10.23;4.70;;;;;;;12.86;48.27;102499.44;5013586;28;20057;-69